Fitchburg, Wisconsin
Current Conditions -  °F | °C
As of 12:53 AM on Sunday 21 Dec 2014 (Local Time) from KMSN Reporting Station
Haze Haze  
Wind Chill: 22°   Ceiling: 1100
Heat Index: 30°   Visibility: 6mi
Dew Point: 26°   Wind: 8mph
Humidity: 85%   Direction: 170°S
Pressure: 30.18"   Gusts: NA
Location:  43°N, 89.41°W
Report Text: KMSN 210653Z AUTO 17007KT 6SM BR OVC011 M01/M03 A3018 RMK AO2 SLP230 T10111033
Loading
Personal Weather Stations






























Interactive Weather Map New forecast layout! Learn more

10-Day Weather Forecast

Advertisements
Track Severe Weather on mobile